Airfield :
LOGIN :

Register | Disclaimer

   EN    FR    IT 

 










Legend :    VFR   Marginal VFR   IFR   Intensive IFR   Very Intensive IFR
Visi :
Ceiling :
>= 8 km
>= 3000ft
5 to 8 km
1000 to 3000 ft
1500m to 5 km
500 to 1000 ft
800 to 1500m
200 to 500 ft
< 800m
< 200 ft
Symbols :   Thunderstorms  Fog  Heavy snow  Heavy precipitations  Wind > 20 kt
SIGMETs :     Misc.  Thunderstorms  Icing  Turbulence  Mountain Waves  Volcanic Ashes







- Airport Elevation : 32 ft
- IATA code : LKZ


EGUL - RAF Lakenheath

CURRENT METAR :
  • 160141Z AUTO 08003KT 9999 FEW021 BKN028 BKN038 15/14 A3014 RMK AO2 SLP209

EXPIRED METARs :
  • 160111Z AUTO 00000KT 9999 FEW025 SCT031 BKN044 15/14 A3015 RMK AO2 SLP213
  • 160056Z AUTO 00000KT 9999 BKN026 15/14 A3015 RMK AO2 RAE40DZB40E46 SLP213 P0002 T01470142
  • 160046Z AUTO 00000KT 9999 BKN026 15/14 A3016 RMK AO2 RAE40DZB40E46 SLP216
  • 160041Z AUTO 00000KT 9999 -DZ FEW007 BKN028 15/14 A3016 RMK AO2 RAE40DZB40 SLP216
  • 152356Z AUTO 00000KT 9999 -RA FEW022 BKN032 15/14 A3016 RMK AO2 DZB11E14RAB14 SLP216 P//// 6//// T01530137 10193 20153 402450095 58004
  • 152322Z AUTO 00000KT 9999 -RA FEW027 OVC033 16/14 A3017 RMK AO2 DZB11E14RAB14 SLP219 $
  • 152256Z AUTO 00000KT 9999 OVC033 16/13 A3017 RMK AO2 SLP220 T01610130 $

Expired Forecast.
No reported NOTAMs for that airfield.



MET'MAP, your aeronautical weather chart ! - Copyright ORBIFLY December 2007 - Disclaimer

ORBIFLY MET'MAP TEAM :

Programming & Development : Alexandra Zaïnal
Concept & Development : Baudouin d'Aumeries
Co-Development & Prog : Marc-Olivier Méhu
Technical & hardware support : Manuel Goepfert

Contact : metmap@orbifly.com




SOURCES & CREDITS :

   NOAA